sensor_id;sensor_type;location;lat;lon;timestamp;pressure;altitude;pressure_sealevel;temperature;humidity
9257;BME280;4665;51.368;6.782;2022-07-06T00:01:38;102178.22;;;14.19;73.64
9257;BME280;4665;51.368;6.782;2022-07-06T00:04:04;102170.31;;;14.17;73.39
9257;BME280;4665;51.368;6.782;2022-07-06T00:06:30;102167.66;;;14.07;73.66
9257;BME280;4665;51.368;6.782;2022-07-06T00:08:56;102179.38;;;14.06;74.00
9257;BME280;4665;51.368;6.782;2022-07-06T00:11:21;102174.44;;;14.02;74.67
9257;BME280;4665;51.368;6.782;2022-07-06T00:13:47;102176.97;;;14.03;74.09
9257;BME280;4665;51.368;6.782;2022-07-06T00:16:13;102177.38;;;13.99;74.10
9257;BME280;4665;51.368;6.782;2022-07-06T00:18:38;102166.13;;;13.95;74.56
9257;BME280;4665;51.368;6.782;2022-07-06T00:21:05;102174.59;;;13.91;74.53
9257;BME280;4665;51.368;6.782;2022-07-06T00:23:31;102170.06;;;13.91;74.62
9257;BME280;4665;51.368;6.782;2022-07-06T00:25:56;102170.38;;;13.88;74.59
9257;BME280;4665;51.368;6.782;2022-07-06T00:28:22;102167.28;;;13.93;74.82
9257;BME280;4665;51.368;6.782;2022-07-06T00:30:47;102176.97;;;13.94;74.73
9257;BME280;4665;51.368;6.782;2022-07-06T00:33:13;102171.91;;;13.91;74.29
9257;BME280;4665;51.368;6.782;2022-07-06T00:35:38;102164.16;;;13.87;74.82
9257;BME280;4665;51.368;6.782;2022-07-06T00:38:04;102174.19;;;13.85;74.92
9257;BME280;4665;51.368;6.782;2022-07-06T00:40:29;102171.22;;;13.88;74.90
9257;BME280;4665;51.368;6.782;2022-07-06T00:42:55;102171.06;;;13.90;74.34
9257;BME280;4665;51.368;6.782;2022-07-06T00:45:21;102163.59;;;13.84;74.97
9257;BME280;4665;51.368;6.782;2022-07-06T00:47:46;102163.47;;;13.85;75.28
9257;BME280;4665;51.368;6.782;2022-07-06T00:50:14;102165.00;;;13.78;74.82
9257;BME280;4665;51.368;6.782;2022-07-06T00:52:45;102165.59;;;13.72;75.51
9257;BME280;4665;51.368;6.782;2022-07-06T00:55:12;102170.66;;;13.75;75.72
9257;BME280;4665;51.368;6.782;2022-07-06T00:57:38;102164.75;;;13.72;75.68
9257;BME280;4665;51.368;6.782;2022-07-06T01:00:06;102182.09;;;13.58;76.52
9257;BME280;4665;51.368;6.782;2022-07-06T01:02:33;102182.22;;;13.56;76.86
9257;BME280;4665;51.368;6.782;2022-07-06T01:04:59;102179.25;;;13.50;76.69
9257;BME280;4665;51.368;6.782;2022-07-06T01:07:25;102174.59;;;13.42;76.83
9257;BME280;4665;51.368;6.782;2022-07-06T01:09:50;102185.28;;;13.32;77.55
9257;BME280;4665;51.368;6.782;2022-07-06T01:12:17;102179.66;;;13.35;77.15
9257;BME280;4665;51.368;6.782;2022-07-06T01:14:42;102176.28;;;13.33;76.91
9257;BME280;4665;51.368;6.782;2022-07-06T01:17:08;102178.22;;;13.31;77.81
9257;BME280;4665;51.368;6.782;2022-07-06T01:19:34;102183.59;;;13.31;77.69
9257;BME280;4665;51.368;6.782;2022-07-06T01:22:00;102171.44;;;13.27;78.15
9257;BME280;4665;51.368;6.782;2022-07-06T01:24:26;102175.09;;;13.16;78.75
9257;BME280;4665;51.368;6.782;2022-07-06T01:26:52;102175.50;;;13.12;79.25
9257;BME280;4665;51.368;6.782;2022-07-06T01:29:17;102167.31;;;13.03;79.54
9257;BME280;4665;51.368;6.782;2022-07-06T01:31:47;102171.09;;;13.01;79.93
9257;BME280;4665;51.368;6.782;2022-07-06T01:34:14;102172.09;;;13.00;79.90
9257;BME280;4665;51.368;6.782;2022-07-06T01:36:41;102167.88;;;12.97;80.17
9257;BME280;4665;51.368;6.782;2022-07-06T01:39:08;102170.25;;;13.00;80.59
9257;BME280;4665;51.368;6.782;2022-07-06T01:41:34;102167.59;;;13.00;79.83
9257;BME280;4665;51.368;6.782;2022-07-06T01:43:59;102161.81;;;12.95;80.14
9257;BME280;4665;51.368;6.782;2022-07-06T01:46:25;102162.78;;;12.94;80.78
9257;BME280;4665;51.368;6.782;2022-07-06T01:48:51;102166.03;;;12.98;80.80
9257;BME280;4665;51.368;6.782;2022-07-06T01:51:16;102160.69;;;12.98;81.23
9257;BME280;4665;51.368;6.782;2022-07-06T01:53:42;102160.81;;;12.96;80.97
9257;BME280;4665;51.368;6.782;2022-07-06T01:56:08;102161.81;;;12.95;81.30
9257;BME280;4665;51.368;6.782;2022-07-06T01:58:34;102160.81;;;12.96;81.24
9257;BME280;4665;51.368;6.782;2022-07-06T02:01:00;102157.41;;;12.94;81.16
9257;BME280;4665;51.368;6.782;2022-07-06T02:03:26;102158.97;;;12.97;82.32
9257;BME280;4665;51.368;6.782;2022-07-06T02:05:51;102167.47;;;13.02;81.83
9257;BME280;4665;51.368;6.782;2022-07-06T02:08:17;102157.00;;;12.99;81.88
9257;BME280;4665;51.368;6.782;2022-07-06T02:10:42;102165.19;;;12.97;81.79
9257;BME280;4665;51.368;6.782;2022-07-06T02:13:08;102157.41;;;12.94;82.10
9257;BME280;4665;51.368;6.782;2022-07-06T02:15:33;102159.84;;;12.97;82.21
9257;BME280;4665;51.368;6.782;2022-07-06T02:17:59;102162.78;;;12.94;82.33
9257;BME280;4665;51.368;6.782;2022-07-06T02:20:24;102157.56;;;12.93;82.40
9257;BME280;4665;51.368;6.782;2022-07-06T02:22:50;102158.41;;;12.93;82.57
9257;BME280;4665;51.368;6.782;2022-07-06T02:25:15;102157.16;;;12.97;82.06
9257;BME280;4665;51.368;6.782;2022-07-06T02:27:41;102158.00;;;12.88;83.38
9257;BME280;4665;51.368;6.782;2022-07-06T02:30:06;102152.19;;;12.83;83.59
9257;BME280;4665;51.368;6.782;2022-07-06T02:32:32;102157.00;;;12.89;83.23
9257;BME280;4665;51.368;6.782;2022-07-06T02:34:58;102161.50;;;12.89;83.26
9257;BME280;4665;51.368;6.782;2022-07-06T02:37:24;102152.47;;;12.90;83.21
9257;BME280;4665;51.368;6.782;2022-07-06T02:39:49;102148.66;;;12.82;83.80
9257;BME280;4665;51.368;6.782;2022-07-06T02:42:15;102159.06;;;12.85;83.83
9257;BME280;4665;51.368;6.782;2022-07-06T02:44:40;102153.31;;;12.90;84.02
9257;BME280;4665;51.368;6.782;2022-07-06T02:47:06;102149.69;;;12.91;83.64
9257;BME280;4665;51.368;6.782;2022-07-06T02:49:31;102155.59;;;12.95;83.78
9257;BME280;4665;51.368;6.782;2022-07-06T02:51:57;102155.03;;;12.91;84.12
9257;BME280;4665;51.368;6.782;2022-07-06T02:54:22;102161.63;;;12.87;84.29
9257;BME280;4665;51.368;6.782;2022-07-06T02:56:48;102154.13;;;12.81;84.59
9257;BME280;4665;51.368;6.782;2022-07-06T02:59:19;102158.09;;;12.77;85.26
9257;BME280;4665;51.368;6.782;2022-07-06T03:01:45;102165.13;;;12.78;85.13
9257;BME280;4665;51.368;6.782;2022-07-06T03:04:10;102166.41;;;12.83;85.67
9257;BME280;4665;51.368;6.782;2022-07-06T03:06:36;102166.25;;;12.85;85.70
9257;BME280;4665;51.368;6.782;2022-07-06T03:09:02;102175.53;;;12.81;85.07
9257;BME280;4665;51.368;6.782;2022-07-06T03:11:28;102178.66;;;12.86;84.95
9257;BME280;4665;51.368;6.782;2022-07-06T03:13:53;102179.91;;;12.82;85.18
9257;BME280;4665;51.368;6.782;2022-07-06T03:16:19;102189.78;;;12.81;85.05
9257;BME280;4665;51.368;6.782;2022-07-06T03:18:44;102188.91;;;12.81;85.63
9257;BME280;4665;51.368;6.782;2022-07-06T03:21:10;102186.22;;;12.81;85.70
9257;BME280;4665;51.368;6.782;2022-07-06T03:23:35;102179.19;;;12.80;85.43
9257;BME280;4665;51.368;6.782;2022-07-06T03:26:00;102182.88;;;12.79;85.39
9257;BME280;4665;51.368;6.782;2022-07-06T03:28:26;102191.56;;;12.81;86.03
9257;BME280;4665;51.368;6.782;2022-07-06T03:30:51;102174.38;;;12.74;86.26
9257;BME280;4665;51.368;6.782;2022-07-06T03:33:17;102178.16;;;12.71;86.17
9257;BME280;4665;51.368;6.782;2022-07-06T03:35:42;102178.34;;;12.70;86.16
9257;BME280;4665;51.368;6.782;2022-07-06T03:38:08;102174.34;;;12.64;86.24
9257;BME280;4665;51.368;6.782;2022-07-06T03:40:33;102183.59;;;12.60;86.75
9257;BME280;4665;51.368;6.782;2022-07-06T03:42:59;102186.56;;;12.57;86.76
9257;BME280;4665;51.368;6.782;2022-07-06T03:45:25;102188.13;;;12.59;86.93
9257;BME280;4665;51.368;6.782;2022-07-06T03:47:50;102180.50;;;12.55;87.72
9257;BME280;4665;51.368;6.782;2022-07-06T03:50:16;102183.72;;;12.49;87.73
9257;BME280;4665;51.368;6.782;2022-07-06T03:52:41;102191.75;;;12.49;87.70
9257;BME280;4665;51.368;6.782;2022-07-06T03:55:11;102184.13;;;12.44;87.98
9257;BME280;4665;51.368;6.782;2022-07-06T03:57:37;102189.16;;;12.37;88.58
9257;BME280;4665;51.368;6.782;2022-07-06T04:00:04;102180.97;;;12.39;88.80
9257;BME280;4665;51.368;6.782;2022-07-06T04:02:30;102187.19;;;12.39;89.10
9257;BME280;4665;51.368;6.782;2022-07-06T04:04:56;102184.38;;;12.41;89.29
9257;BME280;4665;51.368;6.782;2022-07-06T04:07:21;102193.69;;;12.47;89.05
9257;BME280;4665;51.368;6.782;2022-07-06T04:09:47;102194.81;;;12.44;88.97
9257;BME280;4665;51.368;6.782;2022-07-06T04:12:12;102190.44;;;12.43;89.02
9257;BME280;4665;51.368;6.782;2022-07-06T04:14:38;102199.69;;;12.39;89.24
9257;BME280;4665;51.368;6.782;2022-07-06T04:17:04;102190.81;;;12.38;89.62
9257;BME280;4665;51.368;6.782;2022-07-06T04:19:50;102199.97;;;12.36;89.85
9257;BME280;4665;51.368;6.782;2022-07-06T04:22:15;102200.94;;;12.35;89.93
9257;BME280;4665;51.368;6.782;2022-07-06T04:24:41;102193.50;;;12.38;89.73
9257;BME280;4665;51.368;6.782;2022-07-06T04:27:08;102195.72;;;12.33;89.98
9257;BME280;4665;51.368;6.782;2022-07-06T04:29:33;102196.72;;;12.32;90.01
9257;BME280;4665;51.368;6.782;2022-07-06T04:31:59;102189.78;;;12.30;90.76
9257;BME280;4665;51.368;6.782;2022-07-06T04:34:24;102195.84;;;12.32;90.69
9257;BME280;4665;51.368;6.782;2022-07-06T04:36:50;102201.06;;;12.33;91.64
9257;BME280;4665;51.368;6.782;2022-07-06T04:39:15;102201.50;;;12.38;91.27
9257;BME280;4665;51.368;6.782;2022-07-06T04:41:41;102200.41;;;12.41;91.48
9257;BME280;4665;51.368;6.782;2022-07-06T04:44:06;102193.38;;;12.40;91.80
9257;BME280;4665;51.368;6.782;2022-07-06T04:46:32;102199.56;;;12.40;90.61
9257;BME280;4665;51.368;6.782;2022-07-06T04:48:57;102188.28;;;12.37;91.12
9257;BME280;4665;51.368;6.782;2022-07-06T04:51:23;102188.16;;;12.38;91.36
9257;BME280;4665;51.368;6.782;2022-07-06T04:53:48;102184.38;;;12.41;91.24
9257;BME280;4665;51.368;6.782;2022-07-06T04:56:13;102176.75;;;12.36;90.86
9257;BME280;4665;51.368;6.782;2022-07-06T04:58:40;102191.66;;;12.39;91.06
9257;BME280;4665;51.368;6.782;2022-07-06T05:01:05;102186.31;;;12.39;91.73
9257;BME280;4665;51.368;6.782;2022-07-06T05:03:31;102190.56;;;12.41;91.62
9257;BME280;4665;51.368;6.782;2022-07-06T05:05:56;102194.81;;;12.44;92.28
9257;BME280;4665;51.368;6.782;2022-07-06T05:08:22;102189.47;;;12.44;91.51
9257;BME280;4665;51.368;6.782;2022-07-06T05:10:50;102191.75;;;12.49;91.61
9257;BME280;4665;51.368;6.782;2022-07-06T05:13:17;102184.16;;;12.54;91.45
9257;BME280;4665;51.368;6.782;2022-07-06T05:15:42;102192.75;;;12.57;90.94
9257;BME280;4665;51.368;6.782;2022-07-06T05:18:08;102187.28;;;12.59;90.98
9257;BME280;4665;51.368;6.782;2022-07-06T05:20:33;102193.47;;;12.59;90.53
9257;BME280;4665;51.368;6.782;2022-07-06T05:22:59;102191.78;;;12.58;90.83
9257;BME280;4665;51.368;6.782;2022-07-06T05:25:24;102201.75;;;12.56;90.49
9257;BME280;4665;51.368;6.782;2022-07-06T05:27:50;102203.31;;;12.59;91.00
9257;BME280;4665;51.368;6.782;2022-07-06T05:30:15;102207.28;;;12.64;90.98
9257;BME280;4665;51.368;6.782;2022-07-06T05:32:41;102204.47;;;12.66;91.00
9257;BME280;4665;51.368;6.782;2022-07-06T05:35:07;102205.06;;;12.70;90.76
9257;BME280;4665;51.368;6.782;2022-07-06T05:37:33;102205.78;;;12.72;90.32
9257;BME280;4665;51.368;6.782;2022-07-06T05:39:58;102207.03;;;12.68;89.81
9257;BME280;4665;51.368;6.782;2022-07-06T05:42:24;102208.69;;;12.69;90.29
9257;BME280;4665;51.368;6.782;2022-07-06T05:44:49;102204.34;;;12.68;90.63
9257;BME280;4665;51.368;6.782;2022-07-06T05:47:15;102213.22;;;12.68;90.05
9257;BME280;4665;51.368;6.782;2022-07-06T05:49:59;102216.00;;;12.67;90.56
9257;BME280;4665;51.368;6.782;2022-07-06T05:52:43;102216.47;;;12.72;91.17
9257;BME280;4665;51.368;6.782;2022-07-06T05:55:11;102219.84;;;12.74;90.58
9257;BME280;4665;51.368;6.782;2022-07-06T05:57:37;102216.19;;;12.75;91.13
9257;BME280;4665;51.368;6.782;2022-07-06T06:00:04;102228.44;;;12.77;91.07
9257;BME280;4665;51.368;6.782;2022-07-06T06:02:38;102222.81;;;12.80;90.74
9257;BME280;4665;51.368;6.782;2022-07-06T06:05:05;102234.13;;;12.84;90.43
9257;BME280;4665;51.368;6.782;2022-07-06T06:07:33;102229.94;;;12.91;90.39
9257;BME280;4665;51.368;6.782;2022-07-06T06:09:58;102238.81;;;13.01;90.26
9257;BME280;4665;51.368;6.782;2022-07-06T06:12:24;102230.38;;;13.06;90.40
9257;BME280;4665;51.368;6.782;2022-07-06T06:14:49;102238.72;;;13.13;90.38
9257;BME280;4665;51.368;6.782;2022-07-06T06:17:14;102232.84;;;13.19;89.67
9257;BME280;4665;51.368;6.782;2022-07-06T06:19:40;102232.28;;;13.25;88.24
9257;BME280;4665;51.368;6.782;2022-07-06T06:22:05;102234.44;;;13.31;87.73
9257;BME280;4665;51.368;6.782;2022-07-06T06:24:32;102240.28;;;13.46;86.63
9257;BME280;4665;51.368;6.782;2022-07-06T06:26:57;102239.28;;;13.47;86.02
9257;BME280;4665;51.368;6.782;2022-07-06T06:29:24;102240.69;;;13.51;86.42
9257;BME280;4665;51.368;6.782;2022-07-06T06:31:50;102243.66;;;13.58;86.24
9257;BME280;4665;51.368;6.782;2022-07-06T06:34:15;102235.22;;;13.62;85.58
9257;BME280;4665;51.368;6.782;2022-07-06T06:36:41;102228.72;;;13.65;84.42
9257;BME280;4665;51.368;6.782;2022-07-06T06:39:06;102236.06;;;13.73;85.57
9257;BME280;4665;51.368;6.782;2022-07-06T06:41:32;102239.44;;;13.84;84.46
9257;BME280;4665;51.368;6.782;2022-07-06T06:43:57;102231.41;;;13.84;82.36
9257;BME280;4665;51.368;6.782;2022-07-06T06:46:23;102236.75;;;13.84;82.84
9257;BME280;4665;51.368;6.782;2022-07-06T06:48:48;102237.47;;;13.86;83.02
9257;BME280;4665;51.368;6.782;2022-07-06T06:51:14;102245.38;;;13.98;83.50
9257;BME280;4665;51.368;6.782;2022-07-06T06:54:03;102242.09;;;14.04;82.60
9257;BME280;4665;51.368;6.782;2022-07-06T06:56:28;102234.94;;;14.04;81.89
9257;BME280;4665;51.368;6.782;2022-07-06T06:58:54;102242.41;;;14.10;81.90
9257;BME280;4665;51.368;6.782;2022-07-06T07:01:19;102246.19;;;14.18;80.50
9257;BME280;4665;51.368;6.782;2022-07-06T07:03:45;102244.50;;;14.17;80.15
9257;BME280;4665;51.368;6.782;2022-07-06T07:06:10;102250.16;;;14.23;81.22
9257;BME280;4665;51.368;6.782;2022-07-06T07:08:36;102247.19;;;14.26;80.74
9257;BME280;4665;51.368;6.782;2022-07-06T07:11:01;102257.47;;;14.31;80.21
9257;BME280;4665;51.368;6.782;2022-07-06T07:13:27;102259.41;;;14.39;78.49
9257;BME280;4665;51.368;6.782;2022-07-06T07:15:52;102259.16;;;14.42;77.89
9257;BME280;4665;51.368;6.782;2022-07-06T07:18:18;102259.00;;;14.53;78.50
9257;BME280;4665;51.368;6.782;2022-07-06T07:20:44;102250.09;;;14.52;77.29
9257;BME280;4665;51.368;6.782;2022-07-06T07:23:09;102247.16;;;14.56;77.40
9257;BME280;4665;51.368;6.782;2022-07-06T07:25:35;102254.16;;;14.66;77.74
9257;BME280;4665;51.368;6.782;2022-07-06T07:28:04;102249.25;;;14.71;78.25
9257;BME280;4665;51.368;6.782;2022-07-06T07:30:29;102260.50;;;14.75;76.95
9257;BME280;4665;51.368;6.782;2022-07-06T07:32:55;102253.13;;;14.87;77.18
9257;BME280;4665;51.368;6.782;2022-07-06T07:35:21;102256.19;;;14.92;76.88
9257;BME280;4665;51.368;6.782;2022-07-06T07:37:47;102250.56;;;14.95;74.74
9257;BME280;4665;51.368;6.782;2022-07-06T07:40:12;102264.69;;;14.97;73.99
9257;BME280;4665;51.368;6.782;2022-07-06T07:42:38;102262.38;;;15.02;74.16
9257;BME280;4665;51.368;6.782;2022-07-06T07:45:07;102264.75;;;15.05;73.78
9257;BME280;4665;51.368;6.782;2022-07-06T07:47:33;102262.09;;;15.05;74.53
9257;BME280;4665;51.368;6.782;2022-07-06T07:49:59;102261.34;;;15.13;74.82
9257;BME280;4665;51.368;6.782;2022-07-06T07:52:25;102264.88;;;15.13;74.80
9257;BME280;4665;51.368;6.782;2022-07-06T07:54:55;102258.91;;;15.20;75.52
9257;BME280;4665;51.368;6.782;2022-07-06T07:57:21;102262.00;;;15.25;76.46
9257;BME280;4665;51.368;6.782;2022-07-06T07:59:53;102267.31;;;15.34;73.96
9257;BME280;4665;51.368;6.782;2022-07-06T08:02:19;102268.69;;;15.39;73.79
9257;BME280;4665;51.368;6.782;2022-07-06T08:04:58;102259.78;;;15.38;73.24
9257;BME280;4665;51.368;6.782;2022-07-06T08:07:23;102253.59;;;15.38;73.26
9257;BME280;4665;51.368;6.782;2022-07-06T08:09:55;102249.75;;;15.40;71.13
9257;BME280;4665;51.368;6.782;2022-07-06T08:12:21;102252.53;;;15.48;71.41
9257;BME280;4665;51.368;6.782;2022-07-06T08:14:48;102256.19;;;15.47;71.27
9257;BME280;4665;51.368;6.782;2022-07-06T08:17:14;102266.94;;;15.47;72.61
9257;BME280;4665;51.368;6.782;2022-07-06T08:19:53;102255.91;;;15.50;73.04
9257;BME280;4665;51.368;6.782;2022-07-06T08:22:19;102257.59;;;15.51;71.24
9257;BME280;4665;51.368;6.782;2022-07-06T08:24:44;102256.31;;;15.55;70.00
9257;BME280;4665;51.368;6.782;2022-07-06T08:27:10;102255.00;;;15.60;69.92
9257;BME280;4665;51.368;6.782;2022-07-06T08:29:35;102249.94;;;15.56;70.05
9257;BME280;4665;51.368;6.782;2022-07-06T08:32:01;102250.47;;;15.60;69.59
9257;BME280;4665;51.368;6.782;2022-07-06T08:34:26;102260.03;;;15.72;69.94
9257;BME280;4665;51.368;6.782;2022-07-06T08:36:52;102253.75;;;15.82;70.15
9257;BME280;4665;51.368;6.782;2022-07-06T08:39:17;102251.28;;;15.88;68.76
9257;BME280;4665;51.368;6.782;2022-07-06T08:41:43;102250.88;;;16.01;69.30
9257;BME280;4665;51.368;6.782;2022-07-06T08:44:14;102242.06;;;16.09;67.08
9257;BME280;4665;51.368;6.782;2022-07-06T08:46:40;102242.91;;;16.09;66.44
9257;BME280;4665;51.368;6.782;2022-07-06T08:49:07;102246.44;;;16.10;66.44
9257;BME280;4665;51.368;6.782;2022-07-06T08:51:35;102244.66;;;16.01;67.34
9257;BME280;4665;51.368;6.782;2022-07-06T08:54:02;102244.84;;;15.99;65.83
9257;BME280;4665;51.368;6.782;2022-07-06T08:56:28;102251.47;;;16.13;67.04
9257;BME280;4665;51.368;6.782;2022-07-06T08:58:54;102255.41;;;16.18;61.95
9257;BME280;4665;51.368;6.782;2022-07-06T09:01:21;102244.88;;;16.25;60.75
9257;BME280;4665;51.368;6.782;2022-07-06T09:03:49;102254.47;;;16.28;60.15
9257;BME280;4665;51.368;6.782;2022-07-06T09:06:16;102258.16;;;16.27;60.32
9257;BME280;4665;51.368;6.782;2022-07-06T09:08:45;102251.09;;;16.26;60.56
9257;BME280;4665;51.368;6.782;2022-07-06T09:11:11;102243.16;;;16.24;61.45
9257;BME280;4665;51.368;6.782;2022-07-06T09:13:38;102252.25;;;16.23;58.13
9257;BME280;4665;51.368;6.782;2022-07-06T09:16:12;102253.03;;;16.15;56.74
9257;BME280;4665;51.368;6.782;2022-07-06T09:18:38;102256.56;;;16.16;56.69
9257;BME280;4665;51.368;6.782;2022-07-06T09:21:07;102250.88;;;16.19;56.05
9257;BME280;4665;51.368;6.782;2022-07-06T09:23:33;102251.31;;;16.32;56.62
9257;BME280;4665;51.368;6.782;2022-07-06T09:26:02;102249.34;;;16.42;56.76
9257;BME280;4665;51.368;6.782;2022-07-06T09:28:44;102251.44;;;16.49;56.29
9257;BME280;4665;51.368;6.782;2022-07-06T09:31:10;102241.19;;;16.52;52.98
9257;BME280;4665;51.368;6.782;2022-07-06T09:33:36;102238.75;;;16.67;52.59
9257;BME280;4665;51.368;6.782;2022-07-06T09:36:02;102238.13;;;16.73;54.43
9257;BME280;4665;51.368;6.782;2022-07-06T09:38:28;102240.63;;;16.67;53.49
9257;BME280;4665;51.368;6.782;2022-07-06T09:40:54;102237.94;;;16.67;54.58
9257;BME280;4665;51.368;6.782;2022-07-06T09:43:21;102239.09;;;16.64;53.63
9257;BME280;4665;51.368;6.782;2022-07-06T09:45:54;102238.63;;;16.69;54.97
9257;BME280;4665;51.368;6.782;2022-07-06T09:48:27;102234.81;;;16.79;56.45
9257;BME280;4665;51.368;6.782;2022-07-06T09:50:55;102229.84;;;17.01;56.62
9257;BME280;4665;51.368;6.782;2022-07-06T09:53:22;102245.44;;;17.15;53.82
9257;BME280;4665;51.368;6.782;2022-07-06T09:55:49;102243.44;;;17.25;50.73
9257;BME280;4665;51.368;6.782;2022-07-06T09:58:16;102235.22;;;17.35;51.88
9257;BME280;4665;51.368;6.782;2022-07-06T10:00:42;102237.41;;;17.40;49.91
9257;BME280;4665;51.368;6.782;2022-07-06T10:03:08;102233.34;;;17.36;50.78
9257;BME280;4665;51.368;6.782;2022-07-06T10:05:39;102227.84;;;17.45;54.64
9257;BME280;4665;51.368;6.782;2022-07-06T10:08:07;102237.66;;;17.71;52.60
9257;BME280;4665;51.368;6.782;2022-07-06T10:10:36;102248.94;;;17.66;48.85
9257;BME280;4665;51.368;6.782;2022-07-06T10:13:03;102237.97;;;17.60;49.09
9257;BME280;4665;51.368;6.782;2022-07-06T10:15:30;102228.84;;;17.61;50.52
9257;BME280;4665;51.368;6.782;2022-07-06T10:18:03;102236.88;;;17.87;50.23
9257;BME280;4665;51.368;6.782;2022-07-06T10:20:32;102244.59;;;18.06;50.60
9257;BME280;4665;51.368;6.782;2022-07-06T10:23:00;102226.72;;;18.05;48.37
9257;BME280;4665;51.368;6.782;2022-07-06T10:25:27;102228.94;;;18.18;51.88
9257;BME280;4665;51.368;6.782;2022-07-06T10:27:53;102224.03;;;18.14;48.79
9257;BME280;4665;51.368;6.782;2022-07-06T10:30:19;102220.00;;;18.01;50.53
9257;BME280;4665;51.368;6.782;2022-07-06T10:32:46;102223.38;;;18.03;52.20
9257;BME280;4665;51.368;6.782;2022-07-06T10:35:14;102228.59;;;17.88;50.57
9257;BME280;4665;51.368;6.782;2022-07-06T10:37:40;102230.78;;;17.85;48.84
9257;BME280;4665;51.368;6.782;2022-07-06T10:40:06;102231.41;;;17.79;48.68
9257;BME280;4665;51.368;6.782;2022-07-06T10:42:58;102226.88;;;17.71;49.68
9257;BME280;4665;51.368;6.782;2022-07-06T10:50:37;102226.56;;;18.07;49.34
9257;BME280;4665;51.368;6.782;2022-07-06T10:53:02;102233.13;;;18.21;47.41
9257;BME280;4665;51.368;6.782;2022-07-06T10:55:36;102225.69;;;18.39;47.50
9257;BME280;4665;51.368;6.782;2022-07-06T10:58:03;102230.59;;;18.36;47.01
9257;BME280;4665;51.368;6.782;2022-07-06T11:00:51;102226.88;;;18.37;47.55
9257;BME280;4665;51.368;6.782;2022-07-06T11:05:59;102219.81;;;18.19;48.66
9257;BME280;4665;51.368;6.782;2022-07-06T11:14:11;102231.63;;;17.94;50.18
9257;BME280;4665;51.368;6.782;2022-07-06T11:16:58;102225.41;;;18.01;50.49
9257;BME280;4665;51.368;6.782;2022-07-06T11:19:27;102220.16;;;18.16;51.44
9257;BME280;4665;51.368;6.782;2022-07-06T11:22:09;102217.13;;;18.36;50.90
9257;BME280;4665;51.368;6.782;2022-07-06T11:24:39;102214.72;;;18.49;51.04
9257;BME280;4665;51.368;6.782;2022-07-06T11:27:06;102215.53;;;18.49;49.48
9257;BME280;4665;51.368;6.782;2022-07-06T11:29:33;102211.84;;;18.50;49.50
9257;BME280;4665;51.368;6.782;2022-07-06T11:32:05;102219.28;;;18.48;49.92
9257;BME280;4665;51.368;6.782;2022-07-06T11:34:36;102214.22;;;18.45;50.49
9257;BME280;4665;51.368;6.782;2022-07-06T11:37:07;102220.94;;;18.49;50.21
9257;BME280;4665;51.368;6.782;2022-07-06T11:39:35;102217.91;;;18.44;49.26
9257;BME280;4665;51.368;6.782;2022-07-06T11:42:01;102216.56;;;18.40;49.46
9257;BME280;4665;51.368;6.782;2022-07-06T11:44:29;102211.06;;;18.34;49.86
9257;BME280;4665;51.368;6.782;2022-07-06T11:46:54;102207.50;;;18.25;50.10
9257;BME280;4665;51.368;6.782;2022-07-06T11:49:21;102215.94;;;18.30;49.23
9257;BME280;4665;51.368;6.782;2022-07-06T11:51:47;102213.41;;;18.37;49.72
9257;BME280;4665;51.368;6.782;2022-07-06T11:54:20;102211.88;;;18.26;49.73
9257;BME280;4665;51.368;6.782;2022-07-06T11:59:16;102217.44;;;18.33;50.65
9257;BME280;4665;51.368;6.782;2022-07-06T12:01:42;102208.88;;;18.29;51.28
9257;BME280;4665;51.368;6.782;2022-07-06T12:04:10;102207.84;;;18.38;51.71
9257;BME280;4665;51.368;6.782;2022-07-06T12:06:35;102202.75;;;18.43;51.12
9257;BME280;4665;51.368;6.782;2022-07-06T12:09:01;102207.47;;;18.41;49.81
9257;BME280;4665;51.368;6.782;2022-07-06T12:11:35;102196.03;;;18.39;50.67
9257;BME280;4665;51.368;6.782;2022-07-06T12:14:22;102201.06;;;18.42;50.72
9257;BME280;4665;51.368;6.782;2022-07-06T12:16:49;102189.75;;;18.47;50.66
9257;BME280;4665;51.368;6.782;2022-07-06T12:19:17;102189.59;;;18.57;51.32
9257;BME280;4665;51.368;6.782;2022-07-06T12:21:48;102195.59;;;18.67;50.23
9257;BME280;4665;51.368;6.782;2022-07-06T12:24:23;102180.75;;;18.71;51.19
9257;BME280;4665;51.368;6.782;2022-07-06T12:26:50;102179.38;;;18.75;51.21
9257;BME280;4665;51.368;6.782;2022-07-06T12:29:21;102183.19;;;18.97;49.39
9257;BME280;4665;51.368;6.782;2022-07-06T12:34:22;102170.94;;;19.18;50.66
9257;BME280;4665;51.368;6.782;2022-07-06T12:42:22;102160.84;;;19.11;48.91
9257;BME280;4665;51.368;6.782;2022-07-06T12:44:51;102165.41;;;19.11;47.64
9257;BME280;4665;51.368;6.782;2022-07-06T12:47:37;102169.69;;;18.97;47.58
9257;BME280;4665;51.368;6.782;2022-07-06T12:50:09;102157.69;;;19.00;48.35
9257;BME280;4665;51.368;6.782;2022-07-06T12:52:36;102154.38;;;18.89;47.88
9257;BME280;4665;51.368;6.782;2022-07-06T12:55:02;102155.94;;;18.76;49.70
9257;BME280;4665;51.368;6.782;2022-07-06T12:57:45;102149.69;;;18.83;48.70
9257;BME280;4665;51.368;6.782;2022-07-06T13:00:11;102150.19;;;18.87;49.33
9257;BME280;4665;51.368;6.782;2022-07-06T13:02:37;102158.81;;;18.82;50.15
9257;BME280;4665;51.368;6.782;2022-07-06T13:05:10;102158.63;;;18.84;50.27
9257;BME280;4665;51.368;6.782;2022-07-06T13:07:38;102147.44;;;18.95;51.05
9257;BME280;4665;51.368;6.782;2022-07-06T13:10:06;102140.78;;;19.06;50.72
9257;BME280;4665;51.368;6.782;2022-07-06T13:12:32;102158.44;;;19.17;47.88
9257;BME280;4665;51.368;6.782;2022-07-06T13:14:57;102149.19;;;19.11;47.90
9257;BME280;4665;51.368;6.782;2022-07-06T13:17:23;102146.59;;;18.95;48.87
9257;BME280;4665;51.368;6.782;2022-07-06T13:19:49;102135.50;;;18.89;49.79
9257;BME280;4665;51.368;6.782;2022-07-06T13:22:14;102136.31;;;18.90;49.66
9257;BME280;4665;51.368;6.782;2022-07-06T13:24:40;102133.25;;;18.93;49.28
9257;BME280;4665;51.368;6.782;2022-07-06T13:27:06;102136.09;;;19.00;50.00
9257;BME280;4665;51.368;6.782;2022-07-06T13:29:31;102130.00;;;19.06;50.08
9257;BME280;4665;51.368;6.782;2022-07-06T13:31:57;102127.75;;;19.09;49.77
9257;BME280;4665;51.368;6.782;2022-07-06T13:34:22;102138.59;;;19.32;49.69